Faxon, Oklahoma
Current Conditions -  °F | °C
As of 3:53 AM on Sunday 21 Dec 2014 (Local Time) from KLAW Reporting Station
Overcast Overcast  
Wind Chill: 40°   Ceiling: 2400
Heat Index: 44°   Visibility: 10mi
Dew Point: 39°   Wind: 8mph
Humidity: 82%   Direction: 150°SSE
Pressure: 30.07"   Gusts: NA
Location:  34.46°N, 98.58°W
Report Text: KLAW 210953Z AUTO 15007KT 10SM SCT017 BKN024 OVC050 07/04 A3007 RMK AO2 SLP185 T00670039
Loading
Personal Weather Stations






























Interactive Weather Map New forecast layout! Learn more

10-Day Weather Forecast

Advertisements
Track Severe Weather on mobile